sensor_id;sensor_type;location;lat;lon;timestamp;temperature;humidity
9486;DHT22;4781;48.776;9.200;2023-04-24T00:00:56;9.40;99.90
9486;DHT22;4781;48.776;9.200;2023-04-24T00:03:23;9.40;99.90
9486;DHT22;4781;48.776;9.200;2023-04-24T00:05:49;9.40;99.90
9486;DHT22;4781;48.776;9.200;2023-04-24T00:08:17;9.40;99.90
9486;DHT22;4781;48.776;9.200;2023-04-24T00:10:43;9.50;99.90
9486;DHT22;4781;48.776;9.200;2023-04-24T00:13:09;9.40;99.90
9486;DHT22;4781;48.776;9.200;2023-04-24T00:15:35;9.40;99.90
9486;DHT22;4781;48.776;9.200;2023-04-24T00:18:01;9.40;99.90
9486;DHT22;4781;48.776;9.200;2023-04-24T00:20:28;9.40;99.90
9486;DHT22;4781;48.776;9.200;2023-04-24T00:22:55;9.40;99.90
9486;DHT22;4781;48.776;9.200;2023-04-24T00:25:21;9.40;99.90
9486;DHT22;4781;48.776;9.200;2023-04-24T00:27:47;9.40;99.90
9486;DHT22;4781;48.776;9.200;2023-04-24T00:30:13;9.50;99.90
9486;DHT22;4781;48.776;9.200;2023-04-24T00:32:39;9.50;99.90
9486;DHT22;4781;48.776;9.200;2023-04-24T00:35:06;9.50;99.90
9486;DHT22;4781;48.776;9.200;2023-04-24T00:37:32;9.50;99.90
9486;DHT22;4781;48.776;9.200;2023-04-24T00:39:58;9.50;99.90
9486;DHT22;4781;48.776;9.200;2023-04-24T00:42:24;9.60;99.90
9486;DHT22;4781;48.776;9.200;2023-04-24T00:44:50;9.60;99.90
9486;DHT22;4781;48.776;9.200;2023-04-24T00:47:18;9.60;99.90
9486;DHT22;4781;48.776;9.200;2023-04-24T00:49:44;9.60;99.90
9486;DHT22;4781;48.776;9.200;2023-04-24T00:52:10;9.60;99.90
9486;DHT22;4781;48.776;9.200;2023-04-24T00:54:37;9.60;99.90
9486;DHT22;4781;48.776;9.200;2023-04-24T00:57:03;9.60;99.90
9486;DHT22;4781;48.776;9.200;2023-04-24T00:59:31;9.60;99.90
9486;DHT22;4781;48.776;9.200;2023-04-24T01:01:58;9.70;99.90
9486;DHT22;4781;48.776;9.200;2023-04-24T01:04:24;9.70;99.90
9486;DHT22;4781;48.776;9.200;2023-04-24T01:06:50;9.70;99.90
9486;DHT22;4781;48.776;9.200;2023-04-24T01:09:16;9.70;99.90
9486;DHT22;4781;48.776;9.200;2023-04-24T01:11:43;9.70;99.90
9486;DHT22;4781;48.776;9.200;2023-04-24T01:14:09;9.70;99.90
9486;DHT22;4781;48.776;9.200;2023-04-24T01:16:35;9.70;99.90
9486;DHT22;4781;48.776;9.200;2023-04-24T01:19:03;9.70;99.90
9486;DHT22;4781;48.776;9.200;2023-04-24T01:21:34;9.70;99.90
9486;DHT22;4781;48.776;9.200;2023-04-24T01:24:03;9.70;99.90
9486;DHT22;4781;48.776;9.200;2023-04-24T01:26:30;9.80;99.90
9486;DHT22;4781;48.776;9.200;2023-04-24T01:28:57;9.80;99.90
9486;DHT22;4781;48.776;9.200;2023-04-24T01:31:23;9.80;99.90
9486;DHT22;4781;48.776;9.200;2023-04-24T01:33:50;9.80;99.90
9486;DHT22;4781;48.776;9.200;2023-04-24T01:36:16;9.80;99.90
9486;DHT22;4781;48.776;9.200;2023-04-24T01:38:42;9.80;99.90
9486;DHT22;4781;48.776;9.200;2023-04-24T01:41:09;9.80;99.90
9486;DHT22;4781;48.776;9.200;2023-04-24T01:43:37;9.70;99.90
9486;DHT22;4781;48.776;9.200;2023-04-24T01:46:03;9.70;99.90
9486;DHT22;4781;48.776;9.200;2023-04-24T01:48:30;9.70;99.90
9486;DHT22;4781;48.776;9.200;2023-04-24T01:50:56;9.70;99.90
9486;DHT22;4781;48.776;9.200;2023-04-24T01:53:22;9.70;99.90
9486;DHT22;4781;48.776;9.200;2023-04-24T01:55:48;9.70;99.90
9486;DHT22;4781;48.776;9.200;2023-04-24T01:58:14;9.70;99.90
9486;DHT22;4781;48.776;9.200;2023-04-24T02:00:40;9.70;99.90
9486;DHT22;4781;48.776;9.200;2023-04-24T02:03:06;9.70;99.90
9486;DHT22;4781;48.776;9.200;2023-04-24T02:05:32;9.70;99.90
9486;DHT22;4781;48.776;9.200;2023-04-24T02:07:58;9.60;99.90
9486;DHT22;4781;48.776;9.200;2023-04-24T02:10:24;9.60;99.90
9486;DHT22;4781;48.776;9.200;2023-04-24T02:12:50;9.60;99.90
9486;DHT22;4781;48.776;9.200;2023-04-24T02:15:16;9.60;99.90
9486;DHT22;4781;48.776;9.200;2023-04-24T02:17:43;9.70;99.90
9486;DHT22;4781;48.776;9.200;2023-04-24T02:22:58;9.60;99.90
9486;DHT22;4781;48.776;9.200;2023-04-24T02:25:25;9.50;99.90
9486;DHT22;4781;48.776;9.200;2023-04-24T02:27:51;9.60;99.90
9486;DHT22;4781;48.776;9.200;2023-04-24T02:30:16;9.60;99.90
9486;DHT22;4781;48.776;9.200;2023-04-24T02:32:42;9.60;99.90
9486;DHT22;4781;48.776;9.200;2023-04-24T02:35:08;9.60;99.90
9486;DHT22;4781;48.776;9.200;2023-04-24T02:37:34;9.60;99.90
9486;DHT22;4781;48.776;9.200;2023-04-24T02:40:00;9.60;99.90
9486;DHT22;4781;48.776;9.200;2023-04-24T02:42:26;9.60;99.90
9486;DHT22;4781;48.776;9.200;2023-04-24T02:44:52;9.70;99.90
9486;DHT22;4781;48.776;9.200;2023-04-24T02:47:18;9.70;99.90
9486;DHT22;4781;48.776;9.200;2023-04-24T02:49:44;9.70;99.90
9486;DHT22;4781;48.776;9.200;2023-04-24T02:52:10;9.70;99.90
9486;DHT22;4781;48.776;9.200;2023-04-24T02:54:36;9.60;99.90
9486;DHT22;4781;48.776;9.200;2023-04-24T02:57:01;9.60;99.90
9486;DHT22;4781;48.776;9.200;2023-04-24T02:59:28;9.50;99.90
9486;DHT22;4781;48.776;9.200;2023-04-24T03:01:54;9.50;99.90
9486;DHT22;4781;48.776;9.200;2023-04-24T03:04:20;9.50;99.90
9486;DHT22;4781;48.776;9.200;2023-04-24T03:06:46;9.50;99.90
9486;DHT22;4781;48.776;9.200;2023-04-24T03:09:12;9.50;99.90
9486;DHT22;4781;48.776;9.200;2023-04-24T03:11:38;9.50;99.90
9486;DHT22;4781;48.776;9.200;2023-04-24T03:14:04;9.50;99.90
9486;DHT22;4781;48.776;9.200;2023-04-24T03:16:30;9.50;99.90
9486;DHT22;4781;48.776;9.200;2023-04-24T03:18:56;9.50;99.90
9486;DHT22;4781;48.776;9.200;2023-04-24T03:21:22;9.30;99.90
9486;DHT22;4781;48.776;9.200;2023-04-24T03:23:48;9.40;99.90
9486;DHT22;4781;48.776;9.200;2023-04-24T03:26:14;9.40;99.90
9486;DHT22;4781;48.776;9.200;2023-04-24T03:28:39;9.40;99.90
9486;DHT22;4781;48.776;9.200;2023-04-24T03:31:06;9.40;99.90
9486;DHT22;4781;48.776;9.200;2023-04-24T03:33:32;9.40;99.90
9486;DHT22;4781;48.776;9.200;2023-04-24T03:35:58;9.40;99.90
9486;DHT22;4781;48.776;9.200;2023-04-24T03:38:24;9.30;99.90
9486;DHT22;4781;48.776;9.200;2023-04-24T03:40:50;9.30;99.90
9486;DHT22;4781;48.776;9.200;2023-04-24T03:43:15;9.40;99.90
9486;DHT22;4781;48.776;9.200;2023-04-24T03:45:43;9.40;99.90
9486;DHT22;4781;48.776;9.200;2023-04-24T03:48:09;9.40;99.90
9486;DHT22;4781;48.776;9.200;2023-04-24T03:50:35;9.40;99.90
9486;DHT22;4781;48.776;9.200;2023-04-24T03:53:01;9.40;99.90
9486;DHT22;4781;48.776;9.200;2023-04-24T03:55:26;9.30;99.90
9486;DHT22;4781;48.776;9.200;2023-04-24T03:57:52;9.30;99.90
9486;DHT22;4781;48.776;9.200;2023-04-24T04:00:18;9.30;99.90
9486;DHT22;4781;48.776;9.200;2023-04-24T04:02:45;9.30;99.90
9486;DHT22;4781;48.776;9.200;2023-04-24T04:05:10;9.30;99.90
9486;DHT22;4781;48.776;9.200;2023-04-24T04:07:36;9.20;99.90
9486;DHT22;4781;48.776;9.200;2023-04-24T04:10:03;9.20;99.90
9486;DHT22;4781;48.776;9.200;2023-04-24T04:12:30;9.20;99.90
9486;DHT22;4781;48.776;9.200;2023-04-24T04:14:55;9.30;99.90
9486;DHT22;4781;48.776;9.200;2023-04-24T04:17:21;9.30;99.90
9486;DHT22;4781;48.776;9.200;2023-04-24T04:19:47;9.30;99.90
9486;DHT22;4781;48.776;9.200;2023-04-24T04:22:13;9.30;99.90
9486;DHT22;4781;48.776;9.200;2023-04-24T04:24:39;9.40;99.90
9486;DHT22;4781;48.776;9.200;2023-04-24T04:27:06;9.40;99.90
9486;DHT22;4781;48.776;9.200;2023-04-24T04:29:33;9.40;99.90
9486;DHT22;4781;48.776;9.200;2023-04-24T04:32:00;9.40;99.90
9486;DHT22;4781;48.776;9.200;2023-04-24T04:34:26;9.40;99.90
9486;DHT22;4781;48.776;9.200;2023-04-24T04:36:52;9.20;99.90
9486;DHT22;4781;48.776;9.200;2023-04-24T04:39:18;9.00;99.90
9486;DHT22;4781;48.776;9.200;2023-04-24T04:41:45;8.90;99.90
9486;DHT22;4781;48.776;9.200;2023-04-24T04:44:14;8.80;99.90
9486;DHT22;4781;48.776;9.200;2023-04-24T04:46:41;8.80;99.90
9486;DHT22;4781;48.776;9.200;2023-04-24T04:49:07;8.70;99.90
9486;DHT22;4781;48.776;9.200;2023-04-24T04:51:34;8.50;99.90
9486;DHT22;4781;48.776;9.200;2023-04-24T04:54:00;8.40;99.90
9486;DHT22;4781;48.776;9.200;2023-04-24T04:56:26;8.30;99.90
9486;DHT22;4781;48.776;9.200;2023-04-24T04:58:52;8.10;99.90
9486;DHT22;4781;48.776;9.200;2023-04-24T05:01:17;8.10;99.90
9486;DHT22;4781;48.776;9.200;2023-04-24T05:03:44;8.20;99.90
9486;DHT22;4781;48.776;9.200;2023-04-24T05:06:10;8.10;99.90
9486;DHT22;4781;48.776;9.200;2023-04-24T05:08:36;8.10;99.90
9486;DHT22;4781;48.776;9.200;2023-04-24T05:11:02;8.00;99.90
9486;DHT22;4781;48.776;9.200;2023-04-24T05:13:28;8.20;99.90
9486;DHT22;4781;48.776;9.200;2023-04-24T05:15:54;8.20;99.90
9486;DHT22;4781;48.776;9.200;2023-04-24T05:18:20;8.20;99.90
9486;DHT22;4781;48.776;9.200;2023-04-24T05:20:46;8.20;99.90
9486;DHT22;4781;48.776;9.200;2023-04-24T05:23:12;8.20;99.90
9486;DHT22;4781;48.776;9.200;2023-04-24T05:25:37;8.30;99.90
9486;DHT22;4781;48.776;9.200;2023-04-24T05:28:05;8.20;99.90
9486;DHT22;4781;48.776;9.200;2023-04-24T05:30:31;8.20;99.90
9486;DHT22;4781;48.776;9.200;2023-04-24T05:32:57;8.10;99.90
9486;DHT22;4781;48.776;9.200;2023-04-24T05:35:22;8.20;99.90
9486;DHT22;4781;48.776;9.200;2023-04-24T05:37:48;8.20;99.90
9486;DHT22;4781;48.776;9.200;2023-04-24T05:40:14;8.20;99.90
9486;DHT22;4781;48.776;9.200;2023-04-24T05:42:40;8.20;99.90
9486;DHT22;4781;48.776;9.200;2023-04-24T05:45:07;8.20;99.90
9486;DHT22;4781;48.776;9.200;2023-04-24T05:47:35;8.30;99.90
9486;DHT22;4781;48.776;9.200;2023-04-24T05:50:02;8.30;99.90
9486;DHT22;4781;48.776;9.200;2023-04-24T05:52:28;8.20;99.90
9486;DHT22;4781;48.776;9.200;2023-04-24T05:54:54;8.30;99.90
9486;DHT22;4781;48.776;9.200;2023-04-24T05:57:20;8.30;99.90
9486;DHT22;4781;48.776;9.200;2023-04-24T05:59:45;8.40;99.90
9486;DHT22;4781;48.776;9.200;2023-04-24T06:02:11;8.40;99.90
9486;DHT22;4781;48.776;9.200;2023-04-24T06:04:37;8.20;99.90
9486;DHT22;4781;48.776;9.200;2023-04-24T06:07:03;8.20;99.90
9486;DHT22;4781;48.776;9.200;2023-04-24T06:09:29;8.30;99.90
9486;DHT22;4781;48.776;9.200;2023-04-24T06:11:55;8.30;99.90
9486;DHT22;4781;48.776;9.200;2023-04-24T06:14:21;8.30;99.90
9486;DHT22;4781;48.776;9.200;2023-04-24T06:16:47;8.20;99.90
9486;DHT22;4781;48.776;9.200;2023-04-24T06:19:13;8.20;99.90
9486;DHT22;4781;48.776;9.200;2023-04-24T06:21:39;8.20;99.90
9486;DHT22;4781;48.776;9.200;2023-04-24T06:24:05;8.40;99.90
9486;DHT22;4781;48.776;9.200;2023-04-24T06:26:31;8.40;99.90
9486;DHT22;4781;48.776;9.200;2023-04-24T06:28:56;8.60;99.90
9486;DHT22;4781;48.776;9.200;2023-04-24T06:31:24;8.90;99.90
9486;DHT22;4781;48.776;9.200;2023-04-24T06:33:50;9.70;99.90
9486;DHT22;4781;48.776;9.200;2023-04-24T06:36:16;9.20;99.90
9486;DHT22;4781;48.776;9.200;2023-04-24T06:38:42;9.10;99.90
9486;DHT22;4781;48.776;9.200;2023-04-24T06:41:09;9.10;99.90
9486;DHT22;4781;48.776;9.200;2023-04-24T06:43:35;9.20;99.90
9486;DHT22;4781;48.776;9.200;2023-04-24T06:46:01;9.30;99.90
9486;DHT22;4781;48.776;9.200;2023-04-24T06:48:29;9.30;99.90
9486;DHT22;4781;48.776;9.200;2023-04-24T06:50:55;9.30;99.90
9486;DHT22;4781;48.776;9.200;2023-04-24T06:53:21;9.40;99.90
9486;DHT22;4781;48.776;9.200;2023-04-24T06:55:46;9.50;99.90
9486;DHT22;4781;48.776;9.200;2023-04-24T06:58:12;9.50;99.90
9486;DHT22;4781;48.776;9.200;2023-04-24T07:00:39;9.50;99.90
9486;DHT22;4781;48.776;9.200;2023-04-24T07:03:05;9.60;99.90
9486;DHT22;4781;48.776;9.200;2023-04-24T07:05:31;9.60;99.90
9486;DHT22;4781;48.776;9.200;2023-04-24T07:07:59;9.70;99.90
9486;DHT22;4781;48.776;9.200;2023-04-24T07:10:25;9.60;99.90
9486;DHT22;4781;48.776;9.200;2023-04-24T07:12:53;9.70;99.90
9486;DHT22;4781;48.776;9.200;2023-04-24T07:15:20;9.80;99.90
9486;DHT22;4781;48.776;9.200;2023-04-24T07:17:46;9.80;99.90
9486;DHT22;4781;48.776;9.200;2023-04-24T07:20:12;9.80;99.90
9486;DHT22;4781;48.776;9.200;2023-04-24T07:22:40;9.60;99.90
9486;DHT22;4781;48.776;9.200;2023-04-24T07:25:06;9.50;99.90
9486;DHT22;4781;48.776;9.200;2023-04-24T07:27:34;9.40;99.90
9486;DHT22;4781;48.776;9.200;2023-04-24T07:30:00;9.40;99.90
9486;DHT22;4781;48.776;9.200;2023-04-24T07:32:26;9.30;99.90
9486;DHT22;4781;48.776;9.200;2023-04-24T07:34:52;9.40;99.90
9486;DHT22;4781;48.776;9.200;2023-04-24T07:37:18;9.30;99.90
9486;DHT22;4781;48.776;9.200;2023-04-24T07:39:44;9.20;99.90
9486;DHT22;4781;48.776;9.200;2023-04-24T07:42:10;9.30;99.90
9486;DHT22;4781;48.776;9.200;2023-04-24T07:44:36;9.50;99.90
9486;DHT22;4781;48.776;9.200;2023-04-24T07:47:02;9.70;99.90
9486;DHT22;4781;48.776;9.200;2023-04-24T07:49:29;9.60;99.90
9486;DHT22;4781;48.776;9.200;2023-04-24T07:51:54;9.80;99.90
9486;DHT22;4781;48.776;9.200;2023-04-24T07:54:20;9.80;99.90
9486;DHT22;4781;48.776;9.200;2023-04-24T07:56:48;9.90;99.90
9486;DHT22;4781;48.776;9.200;2023-04-24T07:59:13;10.10;99.90
9486;DHT22;4781;48.776;9.200;2023-04-24T08:01:39;10.00;99.90
9486;DHT22;4781;48.776;9.200;2023-04-24T08:04:05;10.00;99.90
9486;DHT22;4781;48.776;9.200;2023-04-24T08:06:32;10.00;99.90
9486;DHT22;4781;48.776;9.200;2023-04-24T08:08:58;9.70;99.90
9486;DHT22;4781;48.776;9.200;2023-04-24T08:11:25;9.70;99.90
9486;DHT22;4781;48.776;9.200;2023-04-24T08:13:51;9.50;99.90
9486;DHT22;4781;48.776;9.200;2023-04-24T08:16:17;9.50;99.90
9486;DHT22;4781;48.776;9.200;2023-04-24T08:18:45;9.40;99.90
9486;DHT22;4781;48.776;9.200;2023-04-24T08:21:11;9.30;99.90
9486;DHT22;4781;48.776;9.200;2023-04-24T08:23:38;9.40;99.90
9486;DHT22;4781;48.776;9.200;2023-04-24T08:26:04;9.50;99.90
9486;DHT22;4781;48.776;9.200;2023-04-24T08:28:34;9.60;99.90
9486;DHT22;4781;48.776;9.200;2023-04-24T08:31:00;9.70;99.90
9486;DHT22;4781;48.776;9.200;2023-04-24T08:33:26;9.80;99.90
9486;DHT22;4781;48.776;9.200;2023-04-24T08:35:52;9.80;99.90
9486;DHT22;4781;48.776;9.200;2023-04-24T08:38:18;9.60;99.90
9486;DHT22;4781;48.776;9.200;2023-04-24T08:40:44;9.70;99.90
9486;DHT22;4781;48.776;9.200;2023-04-24T08:43:12;9.80;99.90
9486;DHT22;4781;48.776;9.200;2023-04-24T08:45:39;9.80;99.90
9486;DHT22;4781;48.776;9.200;2023-04-24T08:48:05;9.80;99.90
9486;DHT22;4781;48.776;9.200;2023-04-24T08:50:33;9.60;99.90
9486;DHT22;4781;48.776;9.200;2023-04-24T08:53:01;9.40;99.90
9486;DHT22;4781;48.776;9.200;2023-04-24T08:55:29;9.40;99.90
9486;DHT22;4781;48.776;9.200;2023-04-24T08:57:56;9.30;99.90
9486;DHT22;4781;48.776;9.200;2023-04-24T09:00:23;9.20;99.90
9486;DHT22;4781;48.776;9.200;2023-04-24T09:05:36;9.60;99.90
9486;DHT22;4781;48.776;9.200;2023-04-24T09:08:04;9.70;99.90
9486;DHT22;4781;48.776;9.200;2023-04-24T09:10:31;9.70;99.90
9486;DHT22;4781;48.776;9.200;2023-04-24T09:12:58;9.50;99.90
9486;DHT22;4781;48.776;9.200;2023-04-24T09:15:26;9.50;99.90
9486;DHT22;4781;48.776;9.200;2023-04-24T09:17:53;9.50;99.90
9486;DHT22;4781;48.776;9.200;2023-04-24T09:20:19;9.40;99.90
9486;DHT22;4781;48.776;9.200;2023-04-24T09:22:45;9.40;99.90
9486;DHT22;4781;48.776;9.200;2023-04-24T09:25:11;9.30;99.90
9486;DHT22;4781;48.776;9.200;2023-04-24T09:27:44;9.20;99.90
9486;DHT22;4781;48.776;9.200;2023-04-24T09:30:11;9.20;99.90
9486;DHT22;4781;48.776;9.200;2023-04-24T09:32:38;9.00;99.90
9486;DHT22;4781;48.776;9.200;2023-04-24T09:35:12;8.90;99.90
9486;DHT22;4781;48.776;9.200;2023-04-24T09:37:45;9.00;99.90
9486;DHT22;4781;48.776;9.200;2023-04-24T09:40:20;9.00;99.90
9486;DHT22;4781;48.776;9.200;2023-04-24T09:42:55;8.90;99.90
9486;DHT22;4781;48.776;9.200;2023-04-24T09:45:28;9.00;99.90
9486;DHT22;4781;48.776;9.200;2023-04-24T09:48:03;9.00;99.90
9486;DHT22;4781;48.776;9.200;2023-04-24T09:50:30;9.20;99.90
9486;DHT22;4781;48.776;9.200;2023-04-24T09:53:03;9.30;99.90
9486;DHT22;4781;48.776;9.200;2023-04-24T09:55:30;9.30;99.90
9486;DHT22;4781;48.776;9.200;2023-04-24T09:57:58;9.40;99.90
9486;DHT22;4781;48.776;9.200;2023-04-24T10:00:31;9.40;99.90
9486;DHT22;4781;48.776;9.200;2023-04-24T10:02:59;9.50;99.90
9486;DHT22;4781;48.776;9.200;2023-04-24T10:05:31;9.50;99.90
9486;DHT22;4781;48.776;9.200;2023-04-24T10:08:06;9.70;99.90
9486;DHT22;4781;48.776;9.200;2023-04-24T10:10:37;9.60;99.90
9486;DHT22;4781;48.776;9.200;2023-04-24T10:13:09;9.60;99.90
9486;DHT22;4781;48.776;9.200;2023-04-24T10:15:36;9.50;99.90
9486;DHT22;4781;48.776;9.200;2023-04-24T10:18:04;9.40;99.90
9486;DHT22;4781;48.776;9.200;2023-04-24T10:20:32;9.50;99.90
9486;DHT22;4781;48.776;9.200;2023-04-24T10:23:00;9.80;99.90
9486;DHT22;4781;48.776;9.200;2023-04-24T10:25:31;10.10;99.90
9486;DHT22;4781;48.776;9.200;2023-04-24T10:27:59;10.40;99.90
9486;DHT22;4781;48.776;9.200;2023-04-24T10:30:28;10.60;99.90
9486;DHT22;4781;48.776;9.200;2023-04-24T10:32:56;10.50;99.90
9486;DHT22;4781;48.776;9.200;2023-04-24T10:35:22;10.90;99.90
9486;DHT22;4781;48.776;9.200;2023-04-24T10:38:03;11.50;99.90
9486;DHT22;4781;48.776;9.200;2023-04-24T10:40:32;11.00;99.90
9486;DHT22;4781;48.776;9.200;2023-04-24T10:43:02;10.80;99.90
9486;DHT22;4781;48.776;9.200;2023-04-24T10:45:30;11.00;99.90
9486;DHT22;4781;48.776;9.200;2023-04-24T10:48:07;11.10;99.90
9486;DHT22;4781;48.776;9.200;2023-04-24T10:50:47;11.30;99.90
9486;DHT22;4781;48.776;9.200;2023-04-24T10:53:17;11.40;99.90
9486;DHT22;4781;48.776;9.200;2023-04-24T10:55:56;11.20;99.90
9486;DHT22;4781;48.776;9.200;2023-04-24T10:58:45;11.20;99.90
9486;DHT22;4781;48.776;9.200;2023-04-24T11:04:01;11.10;99.90
9486;DHT22;4781;48.776;9.200;2023-04-24T11:06:36;11.40;99.90
9486;DHT22;4781;48.776;9.200;2023-04-24T11:09:05;11.40;99.90
9486;DHT22;4781;48.776;9.200;2023-04-24T11:11:34;11.40;99.90
9486;DHT22;4781;48.776;9.200;2023-04-24T11:14:06;11.20;99.90
9486;DHT22;4781;48.776;9.200;2023-04-24T11:16:52;11.30;99.90
9486;DHT22;4781;48.776;9.200;2023-04-24T11:19:22;11.30;99.90
9486;DHT22;4781;48.776;9.200;2023-04-24T11:21:58;11.30;99.90
9486;DHT22;4781;48.776;9.200;2023-04-24T11:24:48;11.30;99.90
9486;DHT22;4781;48.776;9.200;2023-04-24T11:32:29;11.70;99.90
9486;DHT22;4781;48.776;9.200;2023-04-24T11:35:02;11.80;99.90
9486;DHT22;4781;48.776;9.200;2023-04-24T11:37:37;11.70;99.90
9486;DHT22;4781;48.776;9.200;2023-04-24T11:40:06;12.10;99.90
9486;DHT22;4781;48.776;9.200;2023-04-24T11:42:35;12.30;99.90
9486;DHT22;4781;48.776;9.200;2023-04-24T11:45:08;12.20;99.90
9486;DHT22;4781;48.776;9.200;2023-04-24T11:47:35;12.30;99.90
9486;DHT22;4781;48.776;9.200;2023-04-24T11:50:01;11.90;99.90
9486;DHT22;4781;48.776;9.200;2023-04-24T11:52:29;11.80;99.90
9486;DHT22;4781;48.776;9.200;2023-04-24T11:54:55;11.80;99.90
9486;DHT22;4781;48.776;9.200;2023-04-24T11:57:24;11.50;99.90
9486;DHT22;4781;48.776;9.200;2023-04-24T11:59:53;11.40;99.90
9486;DHT22;4781;48.776;9.200;2023-04-24T12:02:27;11.40;99.90
9486;DHT22;4781;48.776;9.200;2023-04-24T12:04:55;11.50;99.90
9486;DHT22;4781;48.776;9.200;2023-04-24T12:07:22;11.60;99.90
9486;DHT22;4781;48.776;9.200;2023-04-24T12:09:58;11.80;99.90
9486;DHT22;4781;48.776;9.200;2023-04-24T12:12:26;11.80;99.90
9486;DHT22;4781;48.776;9.200;2023-04-24T12:14:55;12.10;99.90
9486;DHT22;4781;48.776;9.200;2023-04-24T12:17:30;12.20;99.90
9486;DHT22;4781;48.776;9.200;2023-04-24T12:22:53;11.90;99.90
9486;DHT22;4781;48.776;9.200;2023-04-24T12:25:25;11.80;99.90
9486;DHT22;4781;48.776;9.200;2023-04-24T12:30:44;11.70;99.90
9486;DHT22;4781;48.776;9.200;2023-04-24T12:33:17;11.50;99.90
9486;DHT22;4781;48.776;9.200;2023-04-24T12:35:48;11.30;99.90
9486;DHT22;4781;48.776;9.200;2023-04-24T12:38:13;11.40;99.90
9486;DHT22;4781;48.776;9.200;2023-04-24T12:40:44;11.50;99.90
9486;DHT22;4781;48.776;9.200;2023-04-24T12:43:18;11.40;99.90
9486;DHT22;4781;48.776;9.200;2023-04-24T12:45:50;11.60;99.90
9486;DHT22;4781;48.776;9.200;2023-04-24T12:48:13;11.80;99.90
9486;DHT22;4781;48.776;9.200;2023-04-24T12:50:42;11.70;99.90
9486;DHT22;4781;48.776;9.200;2023-04-24T12:53:09;11.70;99.90
9486;DHT22;4781;48.776;9.200;2023-04-24T12:55:36;11.90;99.90
9486;DHT22;4781;48.776;9.200;2023-04-24T12:58:03;11.80;99.90
9486;DHT22;4781;48.776;9.200;2023-04-24T13:00:29;11.60;99.90
9486;DHT22;4781;48.776;9.200;2023-04-24T13:02:55;11.50;99.90
9486;DHT22;4781;48.776;9.200;2023-04-24T13:05:21;11.60;99.90
9486;DHT22;4781;48.776;9.200;2023-04-24T13:07:47;11.40;99.90
9486;DHT22;4781;48.776;9.200;2023-04-24T13:10:13;11.30;99.90
9486;DHT22;4781;48.776;9.200;2023-04-24T13:12:39;11.10;99.90
9486;DHT22;4781;48.776;9.200;2023-04-24T13:15:07;10.80;99.90
9486;DHT22;4781;48.776;9.200;2023-04-24T13:17:33;10.70;99.90
9486;DHT22;4781;48.776;9.200;2023-04-24T13:19:59;10.70;99.90
9486;DHT22;4781;48.776;9.200;2023-04-24T13:22:25;10.90;99.90
9486;DHT22;4781;48.776;9.200;2023-04-24T13:24:51;11.10;99.90
9486;DHT22;4781;48.776;9.200;2023-04-24T13:27:20;11.30;99.90
9486;DHT22;4781;48.776;9.200;2023-04-24T13:29:46;11.30;99.90
9486;DHT22;4781;48.776;9.200;2023-04-24T13:32:12;11.60;99.90
9486;DHT22;4781;48.776;9.200;2023-04-24T13:34:37;11.60;99.90
9486;DHT22;4781;48.776;9.200;2023-04-24T13:37:04;11.60;99.90
9486;DHT22;4781;48.776;9.200;2023-04-24T13:39:30;11.60;99.90
9486;DHT22;4781;48.776;9.200;2023-04-24T13:41:57;11.40;99.90
9486;DHT22;4781;48.776;9.200;2023-04-24T13:44:23;11.40;99.90
9486;DHT22;4781;48.776;9.200;2023-04-24T13:46:53;11.30;99.90
9486;DHT22;4781;48.776;9.200;2023-04-24T13:49:22;11.20;99.90
9486;DHT22;4781;48.776;9.200;2023-04-24T13:51:51;11.20;99.90
9486;DHT22;4781;48.776;9.200;2023-04-24T13:54:18;11.10;99.90
9486;DHT22;4781;48.776;9.200;2023-04-24T13:56:44;10.70;99.90
9486;DHT22;4781;48.776;9.200;2023-04-24T13:59:12;10.10;99.90
9486;DHT22;4781;48.776;9.200;2023-04-24T14:01:38;9.80;99.90
9486;DHT22;4781;48.776;9.200;2023-04-24T14:04:04;9.60;99.90
9486;DHT22;4781;48.776;9.200;2023-04-24T14:06:30;9.40;99.90
9486;DHT22;4781;48.776;9.200;2023-04-24T14:08:56;9.60;99.90
9486;DHT22;4781;48.776;9.200;2023-04-24T14:11:22;10.00;99.90
9486;DHT22;4781;48.776;9.200;2023-04-24T14:13:49;10.40;99.90
9486;DHT22;4781;48.776;9.200;2023-04-24T14:16:18;10.60;99.90
9486;DHT22;4781;48.776;9.200;2023-04-24T14:18:44;10.80;99.90
9486;DHT22;4781;48.776;9.200;2023-04-24T14:21:10;11.00;99.90
9486;DHT22;4781;48.776;9.200;2023-04-24T14:23:35;11.30;99.90
9486;DHT22;4781;48.776;9.200;2023-04-24T14:26:02;11.60;99.90
9486;DHT22;4781;48.776;9.200;2023-04-24T14:28:28;11.30;99.90
9486;DHT22;4781;48.776;9.200;2023-04-24T14:30:53;11.60;99.90
9486;DHT22;4781;48.776;9.200;2023-04-24T14:33:20;11.50;99.90
9486;DHT22;4781;48.776;9.200;2023-04-24T14:35:46;11.40;99.90
9486;DHT22;4781;48.776;9.200;2023-04-24T14:38:15;11.70;99.90
9486;DHT22;4781;48.776;9.200;2023-04-24T14:40:41;11.80;99.90
9486;DHT22;4781;48.776;9.200;2023-04-24T14:43:09;11.90;99.90
9486;DHT22;4781;48.776;9.200;2023-04-24T14:45:36;12.00;99.90
9486;DHT22;4781;48.776;9.200;2023-04-24T14:48:03;12.00;99.90
9486;DHT22;4781;48.776;9.200;2023-04-24T14:50:29;11.90;99.90
9486;DHT22;4781;48.776;9.200;2023-04-24T14:52:55;11.80;99.90
9486;DHT22;4781;48.776;9.200;2023-04-24T14:55:25;11.60;99.90
9486;DHT22;4781;48.776;9.200;2023-04-24T14:57:52;11.70;99.90
9486;DHT22;4781;48.776;9.200;2023-04-24T15:00:20;11.90;99.90
9486;DHT22;4781;48.776;9.200;2023-04-24T15:02:48;11.80;99.90
9486;DHT22;4781;48.776;9.200;2023-04-24T15:05:14;12.20;99.90
9486;DHT22;4781;48.776;9.200;2023-04-24T15:07:40;12.40;99.90
9486;DHT22;4781;48.776;9.200;2023-04-24T15:10:09;12.40;99.90
9486;DHT22;4781;48.776;9.200;2023-04-24T15:12:36;12.50;99.90
9486;DHT22;4781;48.776;9.200;2023-04-24T15:15:02;12.30;99.90
9486;DHT22;4781;48.776;9.200;2023-04-24T15:17:28;11.80;99.90
9486;DHT22;4781;48.776;9.200;2023-04-24T15:19:54;11.70;99.90
9486;DHT22;4781;48.776;9.200;2023-04-24T15:22:23;11.60;99.90
9486;DHT22;4781;48.776;9.200;2023-04-24T15:24:49;11.60;99.90
9486;DHT22;4781;48.776;9.200;2023-04-24T15:27:15;11.60;99.90
9486;DHT22;4781;48.776;9.200;2023-04-24T15:29:41;11.60;99.90
9486;DHT22;4781;48.776;9.200;2023-04-24T15:32:07;11.60;99.90
9486;DHT22;4781;48.776;9.200;2023-04-24T15:34:33;11.40;99.90
9486;DHT22;4781;48.776;9.200;2023-04-24T15:37:00;11.30;99.90
9486;DHT22;4781;48.776;9.200;2023-04-24T15:39:26;11.30;99.90
9486;DHT22;4781;48.776;9.200;2023-04-24T15:41:52;11.20;99.90
9486;DHT22;4781;48.776;9.200;2023-04-24T15:44:20;11.10;99.90
9486;DHT22;4781;48.776;9.200;2023-04-24T15:46:47;10.00;99.90
9486;DHT22;4781;48.776;9.200;2023-04-24T15:49:13;9.50;99.90
9486;DHT22;4781;48.776;9.200;2023-04-24T15:51:40;9.40;99.90
9486;DHT22;4781;48.776;9.200;2023-04-24T15:54:06;9.30;99.90
9486;DHT22;4781;48.776;9.200;2023-04-24T15:56:31;9.40;99.90
9486;DHT22;4781;48.776;9.200;2023-04-24T15:58:57;9.40;99.90
9486;DHT22;4781;48.776;9.200;2023-04-24T16:01:24;9.30;99.90
9486;DHT22;4781;48.776;9.200;2023-04-24T16:03:50;9.30;99.90
9486;DHT22;4781;48.776;9.200;2023-04-24T16:06:18;9.50;99.90
9486;DHT22;4781;48.776;9.200;2023-04-24T16:08:44;9.60;99.90
9486;DHT22;4781;48.776;9.200;2023-04-24T16:11:12;9.50;99.90
9486;DHT22;4781;48.776;9.200;2023-04-24T16:13:38;9.50;99.90
9486;DHT22;4781;48.776;9.200;2023-04-24T16:16:05;9.50;99.90
9486;DHT22;4781;48.776;9.200;2023-04-24T16:18:31;9.50;99.90
9486;DHT22;4781;48.776;9.200;2023-04-24T16:20:57;9.40;99.90
9486;DHT22;4781;48.776;9.200;2023-04-24T16:23:23;9.40;99.90
9486;DHT22;4781;48.776;9.200;2023-04-24T16:25:49;9.40;99.90
9486;DHT22;4781;48.776;9.200;2023-04-24T16:28:15;9.40;99.90
9486;DHT22;4781;48.776;9.200;2023-04-24T16:30:41;9.40;99.90